sensor_id;sensor_type;location;lat;lon;timestamp;temperature;humidity
22192;DHT22;11261;52.456;10.850;2022-12-29T00:01:09;9.40;99.90
22192;DHT22;11261;52.456;10.850;2022-12-29T00:03:37;9.40;99.90
22192;DHT22;11261;52.456;10.850;2022-12-29T00:06:07;9.40;99.90
22192;DHT22;11261;52.456;10.850;2022-12-29T00:08:35;9.40;99.90
22192;DHT22;11261;52.456;10.850;2022-12-29T00:11:11;9.40;99.90
22192;DHT22;11261;52.456;10.850;2022-12-29T00:13:40;9.40;99.90
22192;DHT22;11261;52.456;10.850;2022-12-29T00:16:26;9.30;99.90
22192;DHT22;11261;52.456;10.850;2022-12-29T00:18:54;9.40;99.90
22192;DHT22;11261;52.456;10.850;2022-12-29T00:21:24;9.40;99.90
22192;DHT22;11261;52.456;10.850;2022-12-29T00:24:13;9.40;99.90
22192;DHT22;11261;52.456;10.850;2022-12-29T00:27:12;9.40;99.90
22192;DHT22;11261;52.456;10.850;2022-12-29T00:29:59;9.40;99.90
22192;DHT22;11261;52.456;10.850;2022-12-29T00:32:44;9.60;99.90
22192;DHT22;11261;52.456;10.850;2022-12-29T00:35:34;9.50;99.90
22192;DHT22;11261;52.456;10.850;2022-12-29T00:38:07;9.50;99.90
22192;DHT22;11261;52.456;10.850;2022-12-29T00:40:52;9.50;99.90
22192;DHT22;11261;52.456;10.850;2022-12-29T00:43:38;9.60;99.90
22192;DHT22;11261;52.456;10.850;2022-12-29T00:46:23;9.60;99.90
22192;DHT22;11261;52.456;10.850;2022-12-29T00:48:51;9.50;99.90
22192;DHT22;11261;52.456;10.850;2022-12-29T00:51:37;9.60;99.90
22192;DHT22;11261;52.456;10.850;2022-12-29T00:54:06;9.60;99.90
22192;DHT22;11261;52.456;10.850;2022-12-29T00:56:35;9.50;99.90
22192;DHT22;11261;52.456;10.850;2022-12-29T00:59:03;9.50;99.90
22192;DHT22;11261;52.456;10.850;2022-12-29T01:01:33;9.60;99.90
22192;DHT22;11261;52.456;10.850;2022-12-29T01:04:02;9.50;99.90
22192;DHT22;11261;52.456;10.850;2022-12-29T01:06:31;9.50;99.90
22192;DHT22;11261;52.456;10.850;2022-12-29T01:08:59;9.60;99.90
22192;DHT22;11261;52.456;10.850;2022-12-29T01:11:46;9.60;99.90
22192;DHT22;11261;52.456;10.850;2022-12-29T01:14:15;9.70;99.90
22192;DHT22;11261;52.456;10.850;2022-12-29T01:16:44;9.70;99.90
22192;DHT22;11261;52.456;10.850;2022-12-29T01:19:12;9.60;99.90
22192;DHT22;11261;52.456;10.850;2022-12-29T01:21:41;9.70;99.90
22192;DHT22;11261;52.456;10.850;2022-12-29T01:24:09;9.70;99.90
22192;DHT22;11261;52.456;10.850;2022-12-29T01:26:38;9.70;99.90
22192;DHT22;11261;52.456;10.850;2022-12-29T01:29:07;9.80;99.90
22192;DHT22;11261;52.456;10.850;2022-12-29T01:31:36;9.80;99.90
22192;DHT22;11261;52.456;10.850;2022-12-29T01:34:04;9.80;99.90
22192;DHT22;11261;52.456;10.850;2022-12-29T01:36:33;9.80;99.90
22192;DHT22;11261;52.456;10.850;2022-12-29T01:39:01;9.70;99.90
22192;DHT22;11261;52.456;10.850;2022-12-29T01:41:29;9.90;99.90
22192;DHT22;11261;52.456;10.850;2022-12-29T01:43:59;9.90;99.90
22192;DHT22;11261;52.456;10.850;2022-12-29T01:46:31;9.70;99.90
22192;DHT22;11261;52.456;10.850;2022-12-29T01:49:07;9.80;99.90
22192;DHT22;11261;52.456;10.850;2022-12-29T01:51:39;9.80;99.90
22192;DHT22;11261;52.456;10.850;2022-12-29T01:54:12;9.80;99.90
22192;DHT22;11261;52.456;10.850;2022-12-29T01:56:41;9.90;99.90
22192;DHT22;11261;52.456;10.850;2022-12-29T01:59:14;10.00;99.90
22192;DHT22;11261;52.456;10.850;2022-12-29T02:01:45;9.90;99.90
22192;DHT22;11261;52.456;10.850;2022-12-29T02:04:14;10.00;99.90
22192;DHT22;11261;52.456;10.850;2022-12-29T02:06:46;10.10;99.90
22192;DHT22;11261;52.456;10.850;2022-12-29T02:09:16;10.00;99.90
22192;DHT22;11261;52.456;10.850;2022-12-29T02:11:44;10.00;99.90
22192;DHT22;11261;52.456;10.850;2022-12-29T02:14:13;9.90;99.90
22192;DHT22;11261;52.456;10.850;2022-12-29T02:16:59;10.10;99.90
22192;DHT22;11261;52.456;10.850;2022-12-29T02:19:59;10.10;99.90
22192;DHT22;11261;52.456;10.850;2022-12-29T02:22:41;10.10;99.90
22192;DHT22;11261;52.456;10.850;2022-12-29T02:25:44;10.00;99.90
22192;DHT22;11261;52.456;10.850;2022-12-29T02:28:33;10.20;99.90
22192;DHT22;11261;52.456;10.850;2022-12-29T02:31:17;10.00;99.90
22192;DHT22;11261;52.456;10.850;2022-12-29T02:33:55;10.00;99.90
22192;DHT22;11261;52.456;10.850;2022-12-29T02:36:34;10.00;99.90
22192;DHT22;11261;52.456;10.850;2022-12-29T02:39:07;9.90;99.90
22192;DHT22;11261;52.456;10.850;2022-12-29T02:41:47;9.90;99.90
22192;DHT22;11261;52.456;10.850;2022-12-29T02:44:24;9.90;99.90
22192;DHT22;11261;52.456;10.850;2022-12-29T02:47:00;9.90;99.90
22192;DHT22;11261;52.456;10.850;2022-12-29T02:49:36;9.80;99.90
22192;DHT22;11261;52.456;10.850;2022-12-29T02:52:08;9.90;99.90
22192;DHT22;11261;52.456;10.850;2022-12-29T02:54:40;9.90;99.90
22192;DHT22;11261;52.456;10.850;2022-12-29T02:57:11;9.90;99.90
22192;DHT22;11261;52.456;10.850;2022-12-29T02:59:40;9.90;99.90
22192;DHT22;11261;52.456;10.850;2022-12-29T03:08:19;9.90;99.90
22192;DHT22;11261;52.456;10.850;2022-12-29T03:11:01;9.90;99.90
22192;DHT22;11261;52.456;10.850;2022-12-29T03:13:35;9.90;99.90
22192;DHT22;11261;52.456;10.850;2022-12-29T03:16:29;9.90;99.90
22192;DHT22;11261;52.456;10.850;2022-12-29T03:19:06;10.00;99.90
22192;DHT22;11261;52.456;10.850;2022-12-29T03:21:38;10.00;99.90
22192;DHT22;11261;52.456;10.850;2022-12-29T03:24:27;10.10;99.90
22192;DHT22;11261;52.456;10.850;2022-12-29T03:26:59;10.10;99.90
22192;DHT22;11261;52.456;10.850;2022-12-29T03:29:31;10.10;99.90
22192;DHT22;11261;52.456;10.850;2022-12-29T03:32:01;10.10;99.90
22192;DHT22;11261;52.456;10.850;2022-12-29T03:34:33;10.10;99.90
22192;DHT22;11261;52.456;10.850;2022-12-29T03:37:06;10.20;99.90
22192;DHT22;11261;52.456;10.850;2022-12-29T03:39:37;10.20;99.90
22192;DHT22;11261;52.456;10.850;2022-12-29T03:42:09;10.20;99.90
22192;DHT22;11261;52.456;10.850;2022-12-29T03:44:43;10.30;99.90
22192;DHT22;11261;52.456;10.850;2022-12-29T03:47:12;10.10;99.90
22192;DHT22;11261;52.456;10.850;2022-12-29T03:49:42;10.20;99.90
22192;DHT22;11261;52.456;10.850;2022-12-29T03:52:10;10.30;99.90
22192;DHT22;11261;52.456;10.850;2022-12-29T03:54:38;10.20;99.90
22192;DHT22;11261;52.456;10.850;2022-12-29T03:57:07;10.20;99.90
22192;DHT22;11261;52.456;10.850;2022-12-29T03:59:35;10.30;99.90
22192;DHT22;11261;52.456;10.850;2022-12-29T04:02:04;10.40;99.90
22192;DHT22;11261;52.456;10.850;2022-12-29T04:04:32;10.40;99.90
22192;DHT22;11261;52.456;10.850;2022-12-29T04:07:02;10.30;99.90
22192;DHT22;11261;52.456;10.850;2022-12-29T04:09:30;10.50;99.90
22192;DHT22;11261;52.456;10.850;2022-12-29T04:11:58;10.40;99.90
22192;DHT22;11261;52.456;10.850;2022-12-29T04:14:27;10.40;99.90
22192;DHT22;11261;52.456;10.850;2022-12-29T04:16:55;10.40;99.90
22192;DHT22;11261;52.456;10.850;2022-12-29T04:19:23;10.50;99.90
22192;DHT22;11261;52.456;10.850;2022-12-29T04:21:51;10.50;99.90
22192;DHT22;11261;52.456;10.850;2022-12-29T04:24:21;10.50;99.90
22192;DHT22;11261;52.456;10.850;2022-12-29T04:26:49;10.60;99.90
22192;DHT22;11261;52.456;10.850;2022-12-29T04:29:17;10.70;99.90
22192;DHT22;11261;52.456;10.850;2022-12-29T04:31:46;10.70;99.90
22192;DHT22;11261;52.456;10.850;2022-12-29T04:34:14;10.50;99.90
22192;DHT22;11261;52.456;10.850;2022-12-29T04:36:44;10.60;99.90
22192;DHT22;11261;52.456;10.850;2022-12-29T04:39:12;10.60;99.90
22192;DHT22;11261;52.456;10.850;2022-12-29T04:41:42;10.50;99.90
22192;DHT22;11261;52.456;10.850;2022-12-29T04:44:10;10.60;99.90
22192;DHT22;11261;52.456;10.850;2022-12-29T04:46:38;10.70;99.90
22192;DHT22;11261;52.456;10.850;2022-12-29T04:49:06;10.70;99.90
22192;DHT22;11261;52.456;10.850;2022-12-29T04:51:36;10.70;99.90
22192;DHT22;11261;52.456;10.850;2022-12-29T04:54:04;10.90;99.90
22192;DHT22;11261;52.456;10.850;2022-12-29T04:56:32;11.00;99.90
22192;DHT22;11261;52.456;10.850;2022-12-29T04:59:02;10.90;99.90
22192;DHT22;11261;52.456;10.850;2022-12-29T05:01:30;10.80;99.90
22192;DHT22;11261;52.456;10.850;2022-12-29T05:03:59;10.80;99.90
22192;DHT22;11261;52.456;10.850;2022-12-29T05:06:28;10.70;99.90
22192;DHT22;11261;52.456;10.850;2022-12-29T05:08:56;10.70;99.90
22192;DHT22;11261;52.456;10.850;2022-12-29T05:11:24;10.80;99.90
22192;DHT22;11261;52.456;10.850;2022-12-29T05:13:52;10.90;99.90
22192;DHT22;11261;52.456;10.850;2022-12-29T05:16:22;10.90;99.90
22192;DHT22;11261;52.456;10.850;2022-12-29T05:18:50;10.90;99.90
22192;DHT22;11261;52.456;10.850;2022-12-29T05:21:18;10.90;99.90
22192;DHT22;11261;52.456;10.850;2022-12-29T05:23:46;11.00;99.90
22192;DHT22;11261;52.456;10.850;2022-12-29T05:26:14;10.90;99.90
22192;DHT22;11261;52.456;10.850;2022-12-29T05:28:43;10.90;99.90
22192;DHT22;11261;52.456;10.850;2022-12-29T05:31:11;10.90;99.90
22192;DHT22;11261;52.456;10.850;2022-12-29T05:33:40;10.80;99.90
22192;DHT22;11261;52.456;10.850;2022-12-29T05:36:09;11.00;99.90
22192;DHT22;11261;52.456;10.850;2022-12-29T05:38:38;11.00;99.90
22192;DHT22;11261;52.456;10.850;2022-12-29T05:41:06;11.00;99.90
22192;DHT22;11261;52.456;10.850;2022-12-29T05:43:34;11.10;99.90
22192;DHT22;11261;52.456;10.850;2022-12-29T05:46:03;11.10;99.90
22192;DHT22;11261;52.456;10.850;2022-12-29T05:48:31;11.10;99.90
22192;DHT22;11261;52.456;10.850;2022-12-29T05:51:05;11.10;99.90
22192;DHT22;11261;52.456;10.850;2022-12-29T05:53:33;11.00;99.90
22192;DHT22;11261;52.456;10.850;2022-12-29T05:56:01;11.00;99.90
22192;DHT22;11261;52.456;10.850;2022-12-29T05:58:29;11.00;99.90
22192;DHT22;11261;52.456;10.850;2022-12-29T06:00:58;10.90;99.90
22192;DHT22;11261;52.456;10.850;2022-12-29T06:03:26;10.90;99.90
22192;DHT22;11261;52.456;10.850;2022-12-29T06:05:55;11.00;99.90
22192;DHT22;11261;52.456;10.850;2022-12-29T06:08:25;11.00;99.90
22192;DHT22;11261;52.456;10.850;2022-12-29T06:10:53;10.90;99.90
22192;DHT22;11261;52.456;10.850;2022-12-29T06:13:21;10.90;99.90
22192;DHT22;11261;52.456;10.850;2022-12-29T06:15:50;10.90;99.90
22192;DHT22;11261;52.456;10.850;2022-12-29T06:18:18;10.90;99.90
22192;DHT22;11261;52.456;10.850;2022-12-29T06:20:47;10.90;99.90
22192;DHT22;11261;52.456;10.850;2022-12-29T06:23:15;11.00;99.90
22192;DHT22;11261;52.456;10.850;2022-12-29T06:25:45;11.20;99.90
22192;DHT22;11261;52.456;10.850;2022-12-29T06:28:14;11.20;99.90
22192;DHT22;11261;52.456;10.850;2022-12-29T06:30:43;11.10;99.90
22192;DHT22;11261;52.456;10.850;2022-12-29T06:33:12;11.20;99.90
22192;DHT22;11261;52.456;10.850;2022-12-29T06:35:41;11.30;99.90
22192;DHT22;11261;52.456;10.850;2022-12-29T06:38:10;11.10;99.90
22192;DHT22;11261;52.456;10.850;2022-12-29T06:40:38;11.10;99.90
22192;DHT22;11261;52.456;10.850;2022-12-29T06:43:09;11.30;99.90
22192;DHT22;11261;52.456;10.850;2022-12-29T06:45:38;11.20;99.90
22192;DHT22;11261;52.456;10.850;2022-12-29T06:48:07;11.20;99.90
22192;DHT22;11261;52.456;10.850;2022-12-29T06:50:35;11.20;99.90
22192;DHT22;11261;52.456;10.850;2022-12-29T06:53:04;11.20;99.90
22192;DHT22;11261;52.456;10.850;2022-12-29T06:55:32;11.30;99.90
22192;DHT22;11261;52.456;10.850;2022-12-29T06:58:01;11.20;99.90
22192;DHT22;11261;52.456;10.850;2022-12-29T07:00:30;11.10;99.90
22192;DHT22;11261;52.456;10.850;2022-12-29T07:02:59;11.10;99.90
22192;DHT22;11261;52.456;10.850;2022-12-29T07:05:27;11.20;99.90
22192;DHT22;11261;52.456;10.850;2022-12-29T07:07:58;11.30;99.90
22192;DHT22;11261;52.456;10.850;2022-12-29T07:10:27;11.10;99.90
22192;DHT22;11261;52.456;10.850;2022-12-29T07:12:55;11.20;99.90
22192;DHT22;11261;52.456;10.850;2022-12-29T07:15:23;11.20;99.90
22192;DHT22;11261;52.456;10.850;2022-12-29T07:17:53;11.30;99.90
22192;DHT22;11261;52.456;10.850;2022-12-29T07:20:22;11.30;99.90
22192;DHT22;11261;52.456;10.850;2022-12-29T07:22:53;11.30;99.90
22192;DHT22;11261;52.456;10.850;2022-12-29T07:25:21;11.30;99.90
22192;DHT22;11261;52.456;10.850;2022-12-29T07:27:49;11.20;99.90
22192;DHT22;11261;52.456;10.850;2022-12-29T07:30:18;11.20;99.90
22192;DHT22;11261;52.456;10.850;2022-12-29T07:32:46;11.20;99.90
22192;DHT22;11261;52.456;10.850;2022-12-29T07:35:15;11.40;99.90
22192;DHT22;11261;52.456;10.850;2022-12-29T07:37:44;11.60;99.90
22192;DHT22;11261;52.456;10.850;2022-12-29T07:40:12;11.50;99.90
22192;DHT22;11261;52.456;10.850;2022-12-29T07:42:40;11.40;99.90
22192;DHT22;11261;52.456;10.850;2022-12-29T07:45:09;11.60;99.90
22192;DHT22;11261;52.456;10.850;2022-12-29T07:47:38;11.70;99.90
22192;DHT22;11261;52.456;10.850;2022-12-29T07:50:06;11.60;99.90
22192;DHT22;11261;52.456;10.850;2022-12-29T07:52:36;11.70;99.90
22192;DHT22;11261;52.456;10.850;2022-12-29T07:55:05;11.60;99.90
22192;DHT22;11261;52.456;10.850;2022-12-29T07:57:33;11.50;99.90
22192;DHT22;11261;52.456;10.850;2022-12-29T08:00:02;11.50;99.90
22192;DHT22;11261;52.456;10.850;2022-12-29T08:02:30;11.80;99.90
22192;DHT22;11261;52.456;10.850;2022-12-29T08:04:59;11.80;99.90
22192;DHT22;11261;52.456;10.850;2022-12-29T08:07:27;11.90;99.90
22192;DHT22;11261;52.456;10.850;2022-12-29T08:09:57;11.80;99.90
22192;DHT22;11261;52.456;10.850;2022-12-29T08:12:25;11.70;99.90
22192;DHT22;11261;52.456;10.850;2022-12-29T08:14:54;11.70;99.90
22192;DHT22;11261;52.456;10.850;2022-12-29T08:17:22;11.90;99.90
22192;DHT22;11261;52.456;10.850;2022-12-29T08:19:50;12.00;99.90
22192;DHT22;11261;52.456;10.850;2022-12-29T08:22:18;11.90;99.90
22192;DHT22;11261;52.456;10.850;2022-12-29T08:24:47;11.90;99.90
22192;DHT22;11261;52.456;10.850;2022-12-29T08:27:16;12.00;99.90
22192;DHT22;11261;52.456;10.850;2022-12-29T08:29:47;11.80;99.90
22192;DHT22;11261;52.456;10.850;2022-12-29T08:32:15;11.90;99.90
22192;DHT22;11261;52.456;10.850;2022-12-29T08:34:44;11.90;99.90
22192;DHT22;11261;52.456;10.850;2022-12-29T08:37:12;11.90;99.90
22192;DHT22;11261;52.456;10.850;2022-12-29T08:39:40;11.90;99.90
22192;DHT22;11261;52.456;10.850;2022-12-29T08:42:08;11.80;99.90
22192;DHT22;11261;52.456;10.850;2022-12-29T08:44:37;11.80;99.90
22192;DHT22;11261;52.456;10.850;2022-12-29T08:47:06;11.80;99.90
22192;DHT22;11261;52.456;10.850;2022-12-29T08:49:34;11.80;99.90
22192;DHT22;11261;52.456;10.850;2022-12-29T08:52:04;11.70;99.90
22192;DHT22;11261;52.456;10.850;2022-12-29T08:54:32;11.70;99.90
22192;DHT22;11261;52.456;10.850;2022-12-29T08:57:00;11.60;99.90
22192;DHT22;11261;52.456;10.850;2022-12-29T08:59:28;11.60;99.90
22192;DHT22;11261;52.456;10.850;2022-12-29T09:01:58;11.50;99.90
22192;DHT22;11261;52.456;10.850;2022-12-29T09:04:27;11.50;99.90
22192;DHT22;11261;52.456;10.850;2022-12-29T09:06:55;11.50;99.90
22192;DHT22;11261;52.456;10.850;2022-12-29T09:09:23;11.50;99.90
22192;DHT22;11261;52.456;10.850;2022-12-29T09:11:52;11.50;99.90
22192;DHT22;11261;52.456;10.850;2022-12-29T09:14:20;11.50;99.90
22192;DHT22;11261;52.456;10.850;2022-12-29T09:16:50;11.50;99.90
22192;DHT22;11261;52.456;10.850;2022-12-29T09:19:37;11.40;99.90
22192;DHT22;11261;52.456;10.850;2022-12-29T09:22:06;11.40;99.90
22192;DHT22;11261;52.456;10.850;2022-12-29T09:24:34;11.30;99.90
22192;DHT22;11261;52.456;10.850;2022-12-29T09:27:02;11.30;99.90
22192;DHT22;11261;52.456;10.850;2022-12-29T09:29:31;11.20;99.90
22192;DHT22;11261;52.456;10.850;2022-12-29T09:31:59;11.20;99.90
22192;DHT22;11261;52.456;10.850;2022-12-29T09:34:31;11.20;99.90
22192;DHT22;11261;52.456;10.850;2022-12-29T09:37:01;11.00;99.90
22192;DHT22;11261;52.456;10.850;2022-12-29T09:39:29;10.80;99.90
22192;DHT22;11261;52.456;10.850;2022-12-29T09:42:01;10.70;99.90
22192;DHT22;11261;52.456;10.850;2022-12-29T09:44:46;10.60;99.90
22192;DHT22;11261;52.456;10.850;2022-12-29T09:47:17;10.50;99.90
22192;DHT22;11261;52.456;10.850;2022-12-29T09:49:49;10.60;99.90
22192;DHT22;11261;52.456;10.850;2022-12-29T09:52:22;10.50;99.90
22192;DHT22;11261;52.456;10.850;2022-12-29T09:54:55;10.60;99.90
22192;DHT22;11261;52.456;10.850;2022-12-29T09:57:35;10.60;99.90
22192;DHT22;11261;52.456;10.850;2022-12-29T10:00:12;10.50;99.90
22192;DHT22;11261;52.456;10.850;2022-12-29T10:02:44;10.40;99.90
22192;DHT22;11261;52.456;10.850;2022-12-29T10:05:23;10.40;99.90
22192;DHT22;11261;52.456;10.850;2022-12-29T10:08:04;10.30;99.90
22192;DHT22;11261;52.456;10.850;2022-12-29T10:10:46;10.40;99.90
22192;DHT22;11261;52.456;10.850;2022-12-29T10:13:26;10.50;99.90
22192;DHT22;11261;52.456;10.850;2022-12-29T10:16:02;10.50;99.90
22192;DHT22;11261;52.456;10.850;2022-12-29T10:21:44;10.50;99.90
22192;DHT22;11261;52.456;10.850;2022-12-29T10:24:19;10.60;99.90
22192;DHT22;11261;52.456;10.850;2022-12-29T10:26:51;10.60;99.90
22192;DHT22;11261;52.456;10.850;2022-12-29T10:29:21;10.60;99.90
22192;DHT22;11261;52.456;10.850;2022-12-29T10:31:58;10.60;99.90
22192;DHT22;11261;52.456;10.850;2022-12-29T10:34:30;10.60;99.90
22192;DHT22;11261;52.456;10.850;2022-12-29T10:37:03;10.60;99.90
22192;DHT22;11261;52.456;10.850;2022-12-29T10:39:38;10.60;99.90
22192;DHT22;11261;52.456;10.850;2022-12-29T10:42:13;10.70;99.90
22192;DHT22;11261;52.456;10.850;2022-12-29T10:44:42;10.70;99.90
22192;DHT22;11261;52.456;10.850;2022-12-29T10:47:13;10.60;99.90
22192;DHT22;11261;52.456;10.850;2022-12-29T10:49:45;10.70;99.90
22192;DHT22;11261;52.456;10.850;2022-12-29T10:52:16;10.70;99.90
22192;DHT22;11261;52.456;10.850;2022-12-29T10:54:51;10.70;99.90
22192;DHT22;11261;52.456;10.850;2022-12-29T10:57:26;10.70;99.90
22192;DHT22;11261;52.456;10.850;2022-12-29T10:59:55;10.70;99.90
22192;DHT22;11261;52.456;10.850;2022-12-29T11:05:21;11.00;99.90
22192;DHT22;11261;52.456;10.850;2022-12-29T11:07:53;11.00;99.90
22192;DHT22;11261;52.456;10.850;2022-12-29T11:10:36;11.00;99.90
22192;DHT22;11261;52.456;10.850;2022-12-29T11:13:12;11.00;99.90
22192;DHT22;11261;52.456;10.850;2022-12-29T11:15:42;11.00;99.90
22192;DHT22;11261;52.456;10.850;2022-12-29T11:18:20;11.00;99.90
22192;DHT22;11261;52.456;10.850;2022-12-29T11:20:50;11.00;99.90
22192;DHT22;11261;52.456;10.850;2022-12-29T11:23:31;11.00;99.90
22192;DHT22;11261;52.456;10.850;2022-12-29T11:26:17;11.00;99.90
22192;DHT22;11261;52.456;10.850;2022-12-29T11:28:47;11.00;99.90
22192;DHT22;11261;52.456;10.850;2022-12-29T11:31:17;11.10;99.90
22192;DHT22;11261;52.456;10.850;2022-12-29T11:33:45;11.20;99.90
22192;DHT22;11261;52.456;10.850;2022-12-29T11:36:16;11.30;99.90
22192;DHT22;11261;52.456;10.850;2022-12-29T11:38:47;11.50;99.90
22192;DHT22;11261;52.456;10.850;2022-12-29T11:41:23;11.50;99.90
22192;DHT22;11261;52.456;10.850;2022-12-29T11:43:53;11.40;99.90
22192;DHT22;11261;52.456;10.850;2022-12-29T11:46:25;11.30;99.90
22192;DHT22;11261;52.456;10.850;2022-12-29T11:48:54;11.40;99.90
22192;DHT22;11261;52.456;10.850;2022-12-29T11:51:29;11.30;99.90
22192;DHT22;11261;52.456;10.850;2022-12-29T11:53:59;11.30;99.90
22192;DHT22;11261;52.456;10.850;2022-12-29T11:56:38;11.30;99.90
22192;DHT22;11261;52.456;10.850;2022-12-29T11:59:37;11.30;99.90
22192;DHT22;11261;52.456;10.850;2022-12-29T12:02:26;11.40;99.90
22192;DHT22;11261;52.456;10.850;2022-12-29T12:05:01;11.50;99.90
22192;DHT22;11261;52.456;10.850;2022-12-29T12:07:39;11.50;99.90
22192;DHT22;11261;52.456;10.850;2022-12-29T12:10:19;11.50;99.90
22192;DHT22;11261;52.456;10.850;2022-12-29T12:12:59;11.40;99.90
22192;DHT22;11261;52.456;10.850;2022-12-29T12:15:35;11.30;99.90
22192;DHT22;11261;52.456;10.850;2022-12-29T12:18:17;11.30;99.90
22192;DHT22;11261;52.456;10.850;2022-12-29T12:20:50;11.30;99.90
22192;DHT22;11261;52.456;10.850;2022-12-29T12:23:27;11.30;99.90
22192;DHT22;11261;52.456;10.850;2022-12-29T12:26:04;11.20;99.90
22192;DHT22;11261;52.456;10.850;2022-12-29T12:28:45;11.30;99.90
22192;DHT22;11261;52.456;10.850;2022-12-29T12:31:19;11.30;99.90
22192;DHT22;11261;52.456;10.850;2022-12-29T12:33:55;11.30;99.90
22192;DHT22;11261;52.456;10.850;2022-12-29T12:36:38;11.20;99.90
22192;DHT22;11261;52.456;10.850;2022-12-29T12:39:11;11.20;99.90
22192;DHT22;11261;52.456;10.850;2022-12-29T12:41:52;11.30;99.90
22192;DHT22;11261;52.456;10.850;2022-12-29T12:44:29;11.20;99.90
22192;DHT22;11261;52.456;10.850;2022-12-29T12:47:24;11.20;99.90
22192;DHT22;11261;52.456;10.850;2022-12-29T12:50:20;11.10;99.90
22192;DHT22;11261;52.456;10.850;2022-12-29T12:53:07;11.10;99.90
22192;DHT22;11261;52.456;10.850;2022-12-29T12:55:49;11.20;99.90
22192;DHT22;11261;52.456;10.850;2022-12-29T12:58:27;11.20;99.90
22192;DHT22;11261;52.456;10.850;2022-12-29T13:01:11;11.20;99.90
22192;DHT22;11261;52.456;10.850;2022-12-29T13:03:55;11.30;99.90
22192;DHT22;11261;52.456;10.850;2022-12-29T13:06:35;11.20;99.90
22192;DHT22;11261;52.456;10.850;2022-12-29T13:09:23;11.30;99.90
22192;DHT22;11261;52.456;10.850;2022-12-29T13:12:06;11.30;99.90
22192;DHT22;11261;52.456;10.850;2022-12-29T13:14:43;11.30;99.90
22192;DHT22;11261;52.456;10.850;2022-12-29T13:17:22;11.30;99.90
22192;DHT22;11261;52.456;10.850;2022-12-29T13:19:57;11.20;99.90
22192;DHT22;11261;52.456;10.850;2022-12-29T13:22:32;11.20;99.90
22192;DHT22;11261;52.456;10.850;2022-12-29T13:25:22;11.30;99.90
22192;DHT22;11261;52.456;10.850;2022-12-29T13:27:55;11.30;99.90
22192;DHT22;11261;52.456;10.850;2022-12-29T13:30:33;11.20;99.90
22192;DHT22;11261;52.456;10.850;2022-12-29T13:33:10;11.20;99.90
22192;DHT22;11261;52.456;10.850;2022-12-29T13:35:55;11.20;99.90
22192;DHT22;11261;52.456;10.850;2022-12-29T13:38:30;11.20;99.90
22192;DHT22;11261;52.456;10.850;2022-12-29T13:41:03;11.20;99.90
22192;DHT22;11261;52.456;10.850;2022-12-29T13:43:35;11.10;99.90
22192;DHT22;11261;52.456;10.850;2022-12-29T13:46:10;11.10;99.90
22192;DHT22;11261;52.456;10.850;2022-12-29T13:48:46;11.00;99.90
22192;DHT22;11261;52.456;10.850;2022-12-29T13:51:16;11.10;99.90
22192;DHT22;11261;52.456;10.850;2022-12-29T13:56:48;11.10;99.90
22192;DHT22;11261;52.456;10.850;2022-12-29T13:59:23;11.00;99.90
22192;DHT22;11261;52.456;10.850;2022-12-29T14:01:58;11.00;99.90
22192;DHT22;11261;52.456;10.850;2022-12-29T14:04:30;11.00;99.90
22192;DHT22;11261;52.456;10.850;2022-12-29T14:07:02;11.00;99.90
22192;DHT22;11261;52.456;10.850;2022-12-29T14:09:46;11.00;99.90
22192;DHT22;11261;52.456;10.850;2022-12-29T14:12:36;11.00;99.90
22192;DHT22;11261;52.456;10.850;2022-12-29T14:15:16;11.00;99.90
22192;DHT22;11261;52.456;10.850;2022-12-29T14:18:05;11.00;99.90
22192;DHT22;11261;52.456;10.850;2022-12-29T14:20:48;11.00;99.90
22192;DHT22;11261;52.456;10.850;2022-12-29T14:23:27;11.00;99.90
22192;DHT22;11261;52.456;10.850;2022-12-29T14:26:10;10.90;99.90
22192;DHT22;11261;52.456;10.850;2022-12-29T14:28:40;10.90;99.90
22192;DHT22;11261;52.456;10.850;2022-12-29T14:34:24;10.90;99.90
22192;DHT22;11261;52.456;10.850;2022-12-29T14:36:57;10.90;99.90
22192;DHT22;11261;52.456;10.850;2022-12-29T14:39:36;10.90;99.90
22192;DHT22;11261;52.456;10.850;2022-12-29T14:42:06;10.90;99.90
22192;DHT22;11261;52.456;10.850;2022-12-29T14:44:47;10.90;99.90
22192;DHT22;11261;52.456;10.850;2022-12-29T14:47:19;10.90;99.90
22192;DHT22;11261;52.456;10.850;2022-12-29T14:49:48;10.90;99.90
22192;DHT22;11261;52.456;10.850;2022-12-29T14:52:22;10.90;99.90
22192;DHT22;11261;52.456;10.850;2022-12-29T14:54:53;10.90;99.90
22192;DHT22;11261;52.456;10.850;2022-12-29T14:57:26;10.90;99.90
22192;DHT22;11261;52.456;10.850;2022-12-29T14:59:59;10.90;99.90
22192;DHT22;11261;52.456;10.850;2022-12-29T15:02:33;10.90;99.90
22192;DHT22;11261;52.456;10.850;2022-12-29T15:05:05;10.90;99.90
22192;DHT22;11261;52.456;10.850;2022-12-29T15:07:36;10.90;99.90
22192;DHT22;11261;52.456;10.850;2022-12-29T15:10:07;10.90;99.90
22192;DHT22;11261;52.456;10.850;2022-12-29T15:12:39;10.90;99.90
22192;DHT22;11261;52.456;10.850;2022-12-29T15:15:21;10.90;99.90
22192;DHT22;11261;52.456;10.850;2022-12-29T15:17:50;10.90;99.90
22192;DHT22;11261;52.456;10.850;2022-12-29T15:20:25;10.90;99.90
22192;DHT22;11261;52.456;10.850;2022-12-29T15:22:56;10.90;99.90
22192;DHT22;11261;52.456;10.850;2022-12-29T15:25:25;10.90;99.90
22192;DHT22;11261;52.456;10.850;2022-12-29T15:27:59;10.80;99.90
22192;DHT22;11261;52.456;10.850;2022-12-29T15:30:28;10.80;99.90
22192;DHT22;11261;52.456;10.850;2022-12-29T15:32:56;10.80;99.90
22192;DHT22;11261;52.456;10.850;2022-12-29T15:35:28;10.80;99.90
22192;DHT22;11261;52.456;10.850;2022-12-29T15:37:59;10.80;99.90
22192;DHT22;11261;52.456;10.850;2022-12-29T15:40:31;10.80;99.90
22192;DHT22;11261;52.456;10.850;2022-12-29T15:43:19;10.80;99.90
22192;DHT22;11261;52.456;10.850;2022-12-29T15:45:49;10.80;99.90
22192;DHT22;11261;52.456;10.850;2022-12-29T15:48:21;10.80;99.90
22192;DHT22;11261;52.456;10.850;2022-12-29T15:50:51;10.80;99.90
22192;DHT22;11261;52.456;10.850;2022-12-29T15:53:23;10.80;99.90
22192;DHT22;11261;52.456;10.850;2022-12-29T15:55:56;10.80;99.90
22192;DHT22;11261;52.456;10.850;2022-12-29T15:58:30;10.80;99.90
22192;DHT22;11261;52.456;10.850;2022-12-29T16:01:00;10.70;99.90
22192;DHT22;11261;52.456;10.850;2022-12-29T16:03:32;10.70;99.90
22192;DHT22;11261;52.456;10.850;2022-12-29T16:06:08;10.70;99.90
22192;DHT22;11261;52.456;10.850;2022-12-29T16:08:39;10.70;99.90
22192;DHT22;11261;52.456;10.850;2022-12-29T16:11:20;10.70;99.90